createdAt,value
2022-10-18T00:00:46.827Z,4.32
2022-10-18T00:01:48.431Z,3.90
2022-10-18T00:02:49.947Z,4.47
2022-10-18T00:03:51.362Z,4.22
2022-10-18T00:04:52.826Z,4.28
2022-10-18T00:05:54.334Z,4.72
2022-10-18T00:06:55.812Z,4.45
2022-10-18T00:07:57.401Z,4.07
2022-10-18T00:08:58.857Z,3.95
2022-10-18T00:10:00.265Z,4.38
2022-10-18T00:11:01.834Z,4.35
2022-10-18T00:12:05.063Z,4.20
2022-10-18T00:13:06.563Z,3.75
2022-10-18T00:14:08.107Z,4.65
2022-10-18T00:15:11.048Z,4.10
2022-10-18T00:16:15.231Z,4.05
2022-10-18T00:17:16.823Z,4.28
2022-10-18T00:18:18.733Z,4.25
2022-10-18T00:19:20.205Z,4.43
2022-10-18T00:20:21.715Z,3.92
2022-10-18T00:21:24.789Z,3.92
2022-10-18T00:22:26.295Z,3.90
2022-10-18T00:23:29.682Z,4.50
2022-10-18T00:24:31.091Z,4.22
2022-10-18T00:25:32.517Z,4.40
2022-10-18T00:26:34.023Z,4.65
2022-10-18T00:27:37.031Z,3.92
2022-10-18T00:28:38.885Z,3.90
2022-10-18T00:29:40.370Z,4.40
2022-10-18T00:30:41.850Z,4.07
2022-10-18T00:31:44.342Z,4.00
2022-10-18T00:32:45.811Z,4.05
2022-10-18T00:33:50.512Z,4.35
2022-10-18T00:34:52.066Z,3.97
2022-10-18T00:35:53.523Z,4.28
2022-10-18T00:36:55.007Z,4.15
2022-10-18T00:37:56.467Z,3.47
2022-10-18T00:38:58.905Z,4.20
2022-10-18T00:40:00.415Z,3.60
2022-10-18T00:41:03.136Z,4.18
2022-10-18T00:42:04.740Z,4.45
2022-10-18T00:43:10.284Z,4.00
2022-10-18T00:44:48.756Z,3.80
2022-10-18T00:45:50.169Z,3.70
2022-10-18T00:46:53.532Z,4.05
2022-10-18T00:47:58.550Z,3.67
2022-10-18T00:49:02.398Z,3.67
2022-10-18T00:50:06.167Z,4.63
2022-10-18T00:51:07.746Z,3.83
2022-10-18T00:52:12.293Z,3.88
2022-10-18T00:53:17.719Z,3.75
2022-10-18T00:54:20.617Z,3.80
2022-10-18T00:55:22.466Z,3.92
2022-10-18T00:56:24.074Z,3.40
2022-10-18T00:57:26.087Z,3.47
2022-10-18T00:58:29.247Z,3.97
2022-10-18T00:59:30.877Z,3.85
2022-10-18T01:00:32.353Z,4.15
2022-10-18T01:01:33.836Z,3.75
2022-10-18T01:02:35.823Z,3.80
2022-10-18T01:03:38.051Z,4.50
2022-10-18T01:04:39.502Z,3.60
2022-10-18T01:05:44.456Z,3.72
2022-10-18T01:08:07.336Z,3.90
2022-10-18T01:09:19.242Z,3.83
2022-10-18T01:10:28.391Z,3.67
2022-10-18T01:11:46.816Z,3.42
2022-10-18T01:12:57.749Z,3.70
2022-10-18T01:14:12.391Z,3.38
2022-10-18T01:15:23.963Z,4.22
2022-10-18T01:16:31.071Z,3.30
2022-10-18T01:17:46.027Z,3.38
2022-10-18T01:18:53.380Z,3.53
2022-10-18T01:20:37.105Z,3.53
2022-10-18T01:21:47.762Z,3.15
2022-10-18T01:22:54.826Z,3.47
2022-10-18T01:24:38.022Z,3.17
2022-10-18T01:25:48.697Z,3.15
2022-10-18T01:27:07.470Z,2.83
2022-10-18T01:28:33.419Z,3.00
2022-10-18T01:29:52.447Z,2.70
2022-10-18T01:30:59.797Z,2.90
2022-10-18T01:32:03.795Z,3.00
2022-10-18T01:33:12.588Z,2.60
2022-10-18T01:34:17.483Z,2.67
2022-10-18T01:35:22.966Z,2.80
2022-10-18T01:36:31.353Z,2.40
2022-10-18T01:37:35.357Z,2.50
2022-10-18T01:38:39.537Z,2.67
2022-10-18T01:39:45.597Z,2.58
2022-10-18T01:40:50.261Z,2.50
2022-10-18T01:41:53.756Z,2.38
2022-10-18T01:42:55.468Z,2.63
2022-10-18T01:43:59.499Z,2.80
2022-10-18T01:45:03.662Z,2.50
2022-10-18T01:46:08.772Z,2.33
2022-10-18T01:47:12.242Z,2.70
2022-10-18T01:48:15.161Z,2.78
2022-10-18T01:49:16.820Z,2.60
2022-10-18T01:50:28.738Z,2.65
2022-10-18T01:51:32.780Z,2.70
2022-10-18T01:52:34.653Z,2.78
2022-10-18T01:53:36.251Z,3.00
2022-10-18T01:54:40.684Z,3.00
2022-10-18T01:55:48.434Z,3.15
2022-10-18T01:56:56.589Z,3.45
2022-10-18T01:58:05.750Z,3.22
2022-10-18T01:59:23.663Z,3.33
2022-10-18T02:00:31.625Z,3.22
2022-10-18T02:01:43.188Z,3.38
2022-10-18T02:02:50.740Z,3.63
2022-10-18T02:03:56.213Z,3.30
2022-10-18T02:05:03.179Z,3.28
2022-10-18T02:06:09.982Z,3.13
2022-10-18T02:07:19.791Z,3.10
2022-10-18T02:08:28.198Z,3.00
2022-10-18T02:09:36.604Z,2.72
2022-10-18T02:10:43.233Z,2.90
2022-10-18T02:11:48.015Z,2.67
2022-10-18T02:12:52.784Z,2.47
2022-10-18T02:13:59.217Z,2.92
2022-10-18T02:15:02.124Z,3.05
2022-10-18T02:16:07.762Z,2.80
2022-10-18T02:17:12.675Z,3.17
2022-10-18T02:18:18.153Z,2.83
2022-10-18T02:20:31.584Z,3.70
2022-10-18T02:21:34.141Z,2.85
2022-10-18T02:22:37.272Z,2.88
2022-10-18T02:23:39.090Z,3.10
2022-10-18T02:24:44.689Z,3.10
2022-10-18T02:25:46.364Z,3.08
2022-10-18T02:26:47.822Z,3.00
2022-10-18T02:27:49.684Z,3.20
2022-10-18T02:28:51.600Z,3.47
2022-10-18T02:29:53.427Z,3.50
2022-10-18T02:31:02.081Z,3.55
2022-10-18T02:32:08.028Z,3.28
2022-10-18T02:33:17.766Z,3.50
2022-10-18T02:34:22.342Z,3.15
2022-10-18T02:35:29.373Z,3.70
2022-10-18T02:36:35.722Z,4.32
2022-10-18T02:37:38.801Z,3.78
2022-10-18T02:38:41.987Z,4.03
2022-10-18T02:39:47.008Z,3.78
2022-10-18T02:40:48.439Z,4.30
2022-10-18T02:41:49.948Z,6.63
2022-10-18T02:42:57.189Z,5.93
2022-10-18T02:43:58.646Z,6.47
2022-10-18T02:45:00.056Z,5.40
2022-10-18T02:46:02.493Z,5.10
2022-10-18T02:47:05.525Z,4.63
2022-10-18T02:48:07.534Z,6.18
2022-10-18T02:49:10.336Z,5.75
2022-10-18T02:50:12.235Z,5.20
2022-10-18T02:51:13.729Z,10.27
2022-10-18T02:52:15.170Z,12.98
2022-10-18T02:53:16.600Z,9.45
2022-10-18T02:54:18.058Z,7.10
2022-10-18T02:55:19.513Z,5.68
2022-10-18T02:56:20.981Z,4.88
2022-10-18T02:57:22.527Z,5.15
2022-10-18T02:58:24.001Z,5.00
2022-10-18T02:59:25.787Z,5.25
2022-10-18T03:00:27.209Z,5.38
2022-10-18T03:01:28.712Z,4.78
2022-10-18T03:02:30.230Z,4.63
2022-10-18T03:03:31.667Z,4.60
2022-10-18T03:04:34.550Z,4.65
2022-10-18T03:05:35.986Z,4.20
2022-10-18T03:06:37.635Z,4.07
2022-10-18T03:07:39.065Z,4.15
2022-10-18T03:08:40.517Z,3.78
2022-10-18T03:09:41.932Z,4.15
2022-10-18T03:10:43.557Z,4.18
2022-10-18T03:11:45.030Z,4.50
2022-10-18T03:12:46.470Z,4.18
2022-10-18T03:13:47.936Z,4.68
2022-10-18T03:14:49.387Z,4.75
2022-10-18T03:15:50.803Z,5.28
2022-10-18T03:16:52.359Z,4.13
2022-10-18T03:17:53.776Z,3.55
2022-10-18T03:18:55.250Z,3.75
2022-10-18T03:19:58.052Z,4.18
2022-10-18T03:20:59.493Z,4.35
2022-10-18T03:22:00.920Z,4.03
2022-10-18T03:23:02.374Z,3.72
2022-10-18T03:24:04.704Z,3.83
2022-10-18T03:25:06.564Z,4.00
2022-10-18T03:26:08.109Z,4.13
2022-10-18T03:27:09.519Z,3.72
2022-10-18T03:28:11.125Z,4.20
2022-10-18T03:29:12.655Z,4.20
2022-10-18T03:30:14.198Z,4.38
2022-10-18T03:31:15.659Z,4.15
2022-10-18T03:32:17.125Z,4.20
2022-10-18T03:33:18.615Z,3.80
2022-10-18T03:34:20.069Z,3.88
2022-10-18T03:35:22.878Z,3.80
2022-10-18T03:36:24.396Z,4.05
2022-10-18T03:37:25.825Z,4.43
2022-10-18T03:38:27.319Z,4.22
2022-10-18T03:39:28.889Z,4.10
2022-10-18T03:41:36.975Z,3.67
2022-10-18T03:42:38.478Z,3.90
2022-10-18T03:43:39.914Z,3.67
2022-10-18T03:44:41.403Z,4.22
2022-10-18T03:45:43.100Z,4.05
2022-10-18T03:46:44.538Z,4.82
2022-10-18T03:47:46.106Z,4.32
2022-10-18T03:48:47.525Z,4.65
2022-10-18T03:49:51.980Z,3.83
2022-10-18T03:50:57.547Z,4.13
2022-10-18T03:51:59.107Z,3.72
2022-10-18T03:53:00.528Z,4.10
2022-10-18T03:54:02.178Z,4.28
2022-10-18T03:55:04.106Z,3.72
2022-10-18T03:56:06.251Z,3.72
2022-10-18T03:57:07.675Z,4.18
2022-10-18T03:58:09.283Z,4.00
2022-10-18T03:59:10.732Z,4.20
2022-10-18T04:00:13.195Z,4.28
2022-10-18T04:01:14.650Z,4.20
2022-10-18T04:02:16.106Z,3.65
2022-10-18T04:03:18.628Z,3.75
2022-10-18T04:04:20.204Z,3.58
2022-10-18T04:05:22.043Z,3.97
2022-10-18T04:06:24.863Z,3.83
2022-10-18T04:07:26.322Z,4.25
2022-10-18T04:08:27.806Z,4.15
2022-10-18T04:09:29.256Z,4.45
2022-10-18T04:10:30.726Z,4.82
2022-10-18T04:11:32.212Z,4.95
2022-10-18T04:12:33.964Z,5.50
2022-10-18T04:13:35.842Z,4.65
2022-10-18T04:14:37.291Z,5.53
2022-10-18T04:15:38.711Z,5.75
2022-10-18T04:16:40.346Z,5.45
2022-10-18T04:17:41.815Z,5.65
2022-10-18T04:18:43.254Z,5.80
2022-10-18T04:19:44.751Z,5.88
2022-10-18T04:20:46.193Z,5.55
2022-10-18T04:21:48.987Z,5.28
2022-10-18T04:22:50.882Z,5.65
2022-10-18T04:23:52.329Z,5.18
2022-10-18T04:24:53.794Z,5.13
2022-10-18T04:25:55.257Z,4.60
2022-10-18T04:26:56.721Z,4.50
2022-10-18T04:27:58.187Z,6.10
2022-10-18T04:28:59.656Z,4.68
2022-10-18T04:30:01.142Z,4.53
2022-10-18T04:31:02.595Z,4.97
2022-10-18T04:32:04.234Z,4.55
2022-10-18T04:33:05.871Z,4.45
2022-10-18T04:34:07.338Z,4.50
2022-10-18T04:35:10.206Z,3.83
2022-10-18T04:36:11.932Z,4.43
2022-10-18T04:37:14.760Z,4.57
2022-10-18T04:38:16.563Z,4.55
2022-10-18T04:39:18.032Z,4.55
2022-10-18T04:40:19.571Z,5.00
2022-10-18T04:41:21.375Z,4.65
2022-10-18T04:42:23.598Z,4.40
2022-10-18T04:43:25.048Z,4.50
2022-10-18T04:44:26.492Z,4.50
2022-10-18T04:45:27.930Z,4.45
2022-10-18T04:46:29.363Z,4.40
2022-10-18T04:47:31.101Z,4.75
2022-10-18T04:48:32.702Z,4.43
2022-10-18T04:49:34.336Z,4.50
2022-10-18T04:50:35.844Z,4.45
2022-10-18T04:51:37.251Z,4.05
2022-10-18T04:52:40.046Z,4.03
2022-10-18T04:53:41.574Z,4.50
2022-10-18T04:54:42.989Z,3.92
2022-10-18T04:55:45.135Z,5.63
2022-10-18T04:56:46.574Z,5.13
2022-10-18T04:57:48.026Z,8.57
2022-10-18T04:58:49.529Z,4.18
2022-10-18T04:59:50.983Z,4.40
2022-10-18T05:00:52.451Z,3.90
2022-10-18T05:01:54.010Z,5.07
2022-10-18T05:02:56.968Z,5.15
2022-10-18T05:03:58.412Z,3.75
2022-10-18T05:04:59.815Z,4.25
2022-10-18T05:06:02.643Z,3.67
2022-10-18T05:07:04.821Z,3.95
2022-10-18T05:08:07.640Z,3.42
2022-10-18T05:09:09.118Z,3.45
2022-10-18T05:10:10.681Z,3.67
2022-10-18T05:11:12.147Z,3.60
2022-10-18T05:12:13.595Z,3.70
2022-10-18T05:13:15.392Z,3.90
2022-10-18T05:14:17.048Z,3.80
2022-10-18T05:15:18.512Z,3.65
2022-10-18T05:16:19.976Z,4.18
2022-10-18T05:17:21.567Z,4.03
2022-10-18T05:18:23.059Z,4.00
2022-10-18T05:19:24.501Z,3.75
2022-10-18T05:20:25.904Z,4.13
2022-10-18T05:21:27.344Z,4.22
2022-10-18T05:22:28.927Z,4.32
2022-10-18T05:23:31.781Z,3.88
2022-10-18T05:24:33.497Z,3.97
2022-10-18T05:25:34.939Z,4.45
2022-10-18T05:26:36.404Z,3.83
2022-10-18T05:27:37.879Z,6.55
2022-10-18T05:28:40.779Z,6.80
2022-10-18T05:29:42.826Z,8.48
2022-10-18T05:30:44.322Z,7.93
2022-10-18T05:31:45.837Z,5.28
2022-10-18T05:32:47.267Z,4.80
2022-10-18T05:33:48.676Z,4.35
2022-10-18T05:34:50.130Z,4.25
2022-10-18T05:35:51.559Z,4.28
2022-10-18T05:36:53.073Z,4.47
2022-10-18T05:37:54.535Z,4.20
2022-10-18T05:39:00.910Z,4.22
2022-10-18T05:40:06.718Z,3.90
2022-10-18T05:41:08.267Z,4.30
2022-10-18T05:42:09.793Z,3.92
2022-10-18T05:43:11.245Z,4.20
2022-10-18T05:44:13.103Z,4.07
2022-10-18T05:45:14.723Z,4.40
2022-10-18T05:46:16.167Z,4.80
2022-10-18T05:47:17.606Z,4.05
2022-10-18T05:48:19.066Z,3.88
2022-10-18T05:49:20.801Z,4.10
2022-10-18T05:50:22.207Z,4.50
2022-10-18T05:51:23.972Z,4.35
2022-10-18T05:52:25.449Z,4.32
2022-10-18T05:53:42.945Z,4.50
2022-10-18T05:54:45.825Z,4.63
2022-10-18T05:55:47.257Z,4.22
2022-10-18T05:56:48.687Z,4.20
2022-10-18T05:57:50.277Z,4.50
2022-10-18T05:58:52.664Z,4.43
2022-10-18T05:59:54.094Z,4.30
2022-10-18T06:00:58.316Z,4.68
2022-10-18T06:01:59.796Z,4.93
2022-10-18T06:03:01.248Z,4.68
2022-10-18T06:04:02.849Z,4.28
2022-10-18T06:05:04.775Z,4.43
2022-10-18T06:06:08.125Z,4.78
2022-10-18T06:07:10.136Z,4.90
2022-10-18T06:08:11.570Z,4.15
2022-10-18T06:09:13.038Z,4.13
2022-10-18T06:10:15.833Z,4.45
2022-10-18T06:11:19.072Z,4.18
2022-10-18T06:12:20.505Z,3.90
2022-10-18T06:13:22.397Z,3.75
2022-10-18T06:14:23.887Z,4.45
2022-10-18T06:15:25.349Z,4.35
2022-10-18T06:16:32.053Z,4.20
2022-10-18T06:17:34.303Z,4.32
2022-10-18T06:18:35.957Z,4.60
2022-10-18T06:19:37.381Z,5.00
2022-10-18T06:20:38.820Z,5.05
2022-10-18T06:21:40.273Z,4.65
2022-10-18T06:22:41.717Z,5.40
2022-10-18T06:23:43.160Z,5.07
2022-10-18T06:24:44.583Z,5.00
2022-10-18T06:25:47.350Z,5.10
2022-10-18T06:26:48.779Z,4.85
2022-10-18T06:27:50.167Z,4.80
2022-10-18T06:28:51.715Z,4.97
2022-10-18T06:29:53.159Z,5.10
2022-10-18T06:30:54.608Z,4.30
2022-10-18T06:31:56.002Z,4.28
2022-10-18T06:33:00.036Z,5.13
2022-10-18T06:34:01.543Z,4.95
2022-10-18T06:35:03.134Z,5.05
2022-10-18T06:36:06.940Z,5.10
2022-10-18T06:37:08.348Z,5.47
2022-10-18T06:38:09.807Z,5.00
2022-10-18T06:39:11.369Z,5.80
2022-10-18T06:40:12.855Z,5.57
2022-10-18T06:41:15.744Z,5.38
2022-10-18T06:42:19.138Z,5.18
2022-10-18T06:43:24.233Z,5.32
2022-10-18T06:44:25.772Z,5.00
2022-10-18T06:45:27.302Z,5.55
2022-10-18T06:46:28.744Z,6.05
2022-10-18T06:47:30.168Z,6.07
2022-10-18T06:48:32.102Z,5.60
2022-10-18T06:49:33.536Z,5.78
2022-10-18T06:50:35.000Z,5.80
2022-10-18T06:51:36.597Z,5.97
2022-10-18T06:52:38.025Z,5.32
2022-10-18T06:53:44.261Z,6.35
2022-10-18T06:54:54.825Z,6.18
2022-10-18T06:56:00.007Z,4.90
2022-10-18T06:57:02.857Z,5.20
2022-10-18T06:58:04.295Z,5.35
2022-10-18T06:59:05.791Z,4.97
2022-10-18T07:00:08.707Z,5.38
2022-10-18T07:01:11.867Z,5.57
2022-10-18T07:02:15.375Z,6.20
2022-10-18T07:03:16.819Z,5.38
2022-10-18T07:04:18.266Z,5.63
2022-10-18T07:05:19.765Z,5.82
2022-10-18T07:06:22.624Z,5.53
2022-10-18T07:07:24.092Z,5.70
2022-10-18T07:08:25.559Z,6.00
2022-10-18T07:09:27.021Z,6.20
2022-10-18T07:10:28.760Z,5.75
2022-10-18T07:11:30.407Z,5.97
2022-10-18T07:12:34.027Z,6.43
2022-10-18T07:13:35.505Z,6.40
2022-10-18T07:14:37.025Z,6.57
2022-10-18T07:15:38.672Z,5.75
2022-10-18T07:16:40.267Z,6.00
2022-10-18T07:17:41.691Z,6.13
2022-10-18T07:18:46.155Z,6.30
2022-10-18T07:19:47.672Z,8.27
2022-10-18T07:20:49.142Z,7.47
2022-10-18T07:21:50.644Z,8.13
2022-10-18T07:22:55.786Z,5.93
2022-10-18T07:23:57.420Z,6.75
2022-10-18T07:24:58.886Z,5.80
2022-10-18T07:26:00.469Z,5.85
2022-10-18T07:27:01.926Z,5.90
2022-10-18T07:28:04.799Z,5.95
2022-10-18T07:29:08.057Z,5.70
2022-10-18T07:30:11.020Z,5.35
2022-10-18T07:31:13.064Z,5.15
2022-10-18T07:32:14.542Z,5.88
2022-10-18T07:33:15.977Z,5.30
2022-10-18T07:34:17.383Z,4.82
2022-10-18T07:35:18.898Z,4.90
2022-10-18T07:36:20.950Z,4.60
2022-10-18T07:37:25.466Z,5.05
2022-10-18T07:38:29.390Z,5.15
2022-10-18T07:39:30.836Z,4.55
2022-10-18T07:40:32.274Z,4.70
2022-10-18T07:41:34.338Z,5.00
2022-10-18T07:42:35.911Z,4.85
2022-10-18T07:43:42.198Z,5.22
2022-10-18T07:44:43.641Z,4.55
2022-10-18T07:45:51.783Z,4.85
2022-10-18T07:46:53.701Z,4.75
2022-10-18T07:47:55.728Z,4.78
2022-10-18T07:48:57.215Z,4.75
2022-10-18T07:49:58.662Z,4.65
2022-10-18T07:51:01.157Z,4.47
2022-10-18T07:52:02.811Z,4.75
2022-10-18T07:53:04.248Z,4.93
2022-10-18T07:54:05.739Z,4.75
2022-10-18T07:55:07.614Z,3.92
2022-10-18T07:56:11.438Z,4.70
2022-10-18T07:57:12.873Z,4.47
2022-10-18T07:58:14.430Z,3.88
2022-10-18T07:59:17.261Z,4.63
2022-10-18T08:00:18.745Z,4.75
2022-10-18T08:01:21.361Z,4.38
2022-10-18T08:02:23.149Z,3.60
2022-10-18T08:03:24.629Z,4.78
2022-10-18T08:04:26.060Z,4.20
2022-10-18T08:05:28.321Z,3.88
2022-10-18T08:06:29.984Z,3.90
2022-10-18T08:07:31.672Z,3.97
2022-10-18T08:08:33.310Z,4.00
2022-10-18T08:09:34.779Z,3.90
2022-10-18T08:10:36.285Z,3.83
2022-10-18T08:11:38.840Z,3.70
2022-10-18T08:12:40.252Z,3.58
2022-10-18T08:13:42.211Z,3.30
2022-10-18T08:14:44.994Z,4.15
2022-10-18T08:15:47.026Z,3.80
2022-10-18T08:16:48.576Z,3.88
2022-10-18T08:17:50.197Z,4.35
2022-10-18T08:18:51.657Z,4.18
2022-10-18T08:20:05.005Z,4.40
2022-10-18T08:21:15.191Z,4.35
2022-10-18T08:22:16.659Z,4.38
2022-10-18T08:23:18.099Z,4.22
2022-10-18T08:24:19.507Z,4.40
2022-10-18T08:25:21.020Z,4.63
2022-10-18T08:26:23.422Z,4.18
2022-10-18T08:27:24.833Z,4.65
2022-10-18T08:28:26.269Z,4.55
2022-10-18T08:29:31.559Z,5.03
2022-10-18T08:30:36.024Z,4.32
2022-10-18T08:31:37.556Z,5.13
2022-10-18T08:32:38.993Z,4.60
2022-10-18T08:33:40.543Z,4.40
2022-10-18T08:34:42.003Z,4.85
2022-10-18T08:35:43.449Z,4.68
2022-10-18T08:36:44.912Z,4.82
2022-10-18T08:37:46.376Z,5.28
2022-10-18T08:38:47.813Z,4.22
2022-10-18T08:39:49.682Z,4.43
2022-10-18T08:40:51.677Z,4.55
2022-10-18T08:42:18.557Z,5.45
2022-10-18T08:43:30.229Z,5.60
2022-10-18T08:44:32.774Z,5.68
2022-10-18T08:45:42.366Z,5.03
2022-10-18T08:46:46.531Z,5.00
2022-10-18T08:47:50.104Z,5.50
2022-10-18T08:48:54.867Z,6.65
2022-10-18T08:50:00.751Z,6.13
2022-10-18T08:51:04.781Z,6.53
2022-10-18T08:52:15.753Z,7.30
2022-10-18T08:53:23.940Z,6.38
2022-10-18T08:54:34.636Z,6.70
2022-10-18T08:55:42.024Z,7.30
2022-10-18T08:56:49.252Z,6.90
2022-10-18T08:57:51.518Z,6.75
2022-10-18T08:58:53.070Z,7.00
2022-10-18T08:59:54.559Z,6.15
2022-10-18T09:01:07.981Z,6.50
2022-10-18T09:02:22.400Z,6.80
2022-10-18T09:03:37.392Z,6.55
2022-10-18T09:04:48.472Z,6.93
2022-10-18T09:05:53.169Z,6.15
2022-10-18T09:07:06.193Z,7.05
2022-10-18T09:08:39.778Z,6.35
2022-10-18T09:09:46.602Z,6.40
2022-10-18T09:11:00.019Z,5.97
2022-10-18T09:12:19.799Z,5.95
2022-10-18T09:13:48.695Z,6.47
2022-10-18T09:15:03.138Z,5.72
2022-10-18T09:16:10.593Z,5.68
2022-10-18T09:17:23.125Z,5.38
2022-10-18T09:18:42.164Z,5.22
2022-10-18T09:19:53.670Z,5.35
2022-10-18T09:20:58.000Z,5.63
2022-10-18T09:22:07.457Z,5.32
2022-10-18T09:23:18.741Z,5.43
2022-10-18T09:24:26.562Z,5.60
2022-10-18T09:25:35.497Z,5.82
2022-10-18T09:26:43.536Z,5.50
2022-10-18T09:27:54.003Z,4.95
2022-10-18T09:29:07.889Z,4.97
2022-10-18T09:30:19.718Z,5.35
2022-10-18T09:31:30.272Z,5.00
2022-10-18T09:32:48.361Z,4.57
2022-10-18T09:33:54.853Z,4.60
2022-10-18T09:34:59.581Z,4.80
2022-10-18T09:36:03.135Z,5.05
2022-10-18T09:37:09.430Z,4.90
2022-10-18T09:38:15.842Z,5.35
2022-10-18T09:39:22.403Z,4.80
2022-10-18T09:40:27.784Z,4.47
2022-10-18T09:41:35.780Z,4.10
2022-10-18T09:42:42.080Z,4.15
2022-10-18T09:43:51.192Z,4.28
2022-10-18T09:44:56.902Z,4.60
2022-10-18T09:45:58.860Z,4.55
2022-10-18T09:47:12.297Z,4.32
2022-10-18T09:48:21.621Z,4.15
2022-10-18T09:49:26.808Z,4.30
2022-10-18T09:50:32.541Z,4.13
2022-10-18T09:51:36.789Z,4.07
2022-10-18T09:52:43.446Z,4.15
2022-10-18T09:53:57.668Z,4.97
2022-10-18T09:55:03.001Z,4.95
2022-10-18T09:56:06.514Z,5.22
2022-10-18T09:57:10.911Z,4.90
2022-10-18T09:58:14.065Z,4.88
2022-10-18T09:59:33.921Z,5.07
2022-10-18T10:00:44.349Z,5.07
2022-10-18T10:01:46.110Z,5.30
2022-10-18T10:02:48.960Z,4.30
2022-10-18T10:03:51.253Z,4.35
2022-10-18T10:04:53.425Z,4.03
2022-10-18T10:06:14.172Z,3.72
2022-10-18T10:07:17.848Z,3.65
2022-10-18T10:08:32.228Z,4.30
2022-10-18T10:09:39.879Z,4.43
2022-10-18T10:10:47.104Z,4.95
2022-10-18T10:11:50.304Z,5.32
2022-10-18T10:13:03.812Z,5.20
2022-10-18T10:14:13.235Z,5.07
2022-10-18T10:15:20.191Z,5.38
2022-10-18T10:16:22.982Z,5.20
2022-10-18T10:17:26.031Z,5.15
2022-10-18T10:18:31.216Z,5.90
2022-10-18T10:19:35.772Z,5.47
2022-10-18T10:20:44.776Z,5.50
2022-10-18T10:21:48.921Z,5.60
2022-10-18T10:22:52.259Z,5.50
2022-10-18T10:23:56.810Z,5.07
2022-10-18T10:24:59.225Z,4.95
2022-10-18T10:26:03.760Z,4.60
2022-10-18T10:27:10.091Z,4.90
2022-10-18T10:28:16.225Z,5.18
2022-10-18T10:29:50.290Z,4.45
2022-10-18T10:30:52.025Z,5.18
2022-10-18T10:32:01.953Z,5.03
2022-10-18T10:33:05.035Z,4.60
2022-10-18T10:34:20.098Z,4.93
2022-10-18T10:35:41.416Z,4.75
2022-10-18T10:36:52.610Z,4.50
2022-10-18T10:37:54.595Z,4.47
2022-10-18T10:39:03.976Z,4.15
2022-10-18T10:40:21.278Z,4.68
2022-10-18T10:41:25.677Z,4.80
2022-10-18T10:42:27.207Z,5.05
2022-10-18T10:43:37.456Z,4.53
2022-10-18T10:44:54.107Z,4.07
2022-10-18T10:45:59.275Z,4.43
2022-10-18T10:47:00.772Z,4.15
2022-10-18T10:48:06.993Z,4.10
2022-10-18T10:49:39.274Z,4.15
2022-10-18T10:50:56.159Z,4.50
2022-10-18T10:52:15.406Z,4.53
2022-10-18T10:53:42.285Z,4.35
2022-10-18T10:54:50.285Z,3.88
2022-10-18T10:55:54.871Z,3.70
2022-10-18T10:57:00.020Z,4.40
2022-10-18T10:58:01.642Z,4.10
2022-10-18T10:59:13.136Z,4.00
2022-10-18T11:00:36.836Z,4.18
2022-10-18T11:01:38.297Z,3.95
2022-10-18T11:02:39.889Z,4.05
2022-10-18T11:03:46.191Z,3.85
2022-10-18T11:04:51.049Z,3.70
2022-10-18T11:05:53.814Z,3.97
2022-10-18T11:07:06.668Z,4.15
2022-10-18T11:08:10.986Z,3.90
2022-10-18T11:09:22.909Z,4.25
2022-10-18T11:10:27.531Z,3.67
2022-10-18T11:11:33.517Z,3.80
2022-10-18T11:12:39.188Z,3.85
2022-10-18T11:13:53.339Z,3.78
2022-10-18T11:15:16.941Z,3.83
2022-10-18T11:16:26.277Z,4.38
2022-10-18T11:17:32.360Z,3.97
2022-10-18T11:18:36.491Z,3.80
2022-10-18T11:19:44.447Z,4.53
2022-10-18T11:20:51.031Z,3.85
2022-10-18T11:21:53.366Z,3.63
2022-10-18T11:23:01.586Z,3.45
2022-10-18T11:24:03.516Z,3.60
2022-10-18T11:25:05.635Z,4.55
2022-10-18T11:26:32.412Z,4.63
2022-10-18T11:27:40.915Z,3.28
2022-10-18T11:28:57.988Z,3.35
2022-10-18T11:30:18.593Z,3.50
2022-10-18T11:31:30.295Z,3.33
2022-10-18T11:32:42.800Z,3.38
2022-10-18T11:34:14.832Z,3.38
2022-10-18T11:35:33.086Z,3.50
2022-10-18T11:36:49.327Z,3.17
2022-10-18T11:38:15.485Z,3.17
2022-10-18T11:39:26.084Z,3.55
2022-10-18T11:40:37.662Z,3.00
2022-10-18T11:41:47.225Z,3.15
2022-10-18T11:42:58.324Z,2.80
2022-10-18T11:44:03.707Z,3.60
2022-10-18T11:45:18.220Z,2.88
2022-10-18T11:46:29.821Z,3.17
2022-10-18T11:47:40.926Z,3.15
2022-10-18T11:49:00.188Z,2.97
2022-10-18T11:50:11.869Z,3.03
2022-10-18T11:51:34.080Z,3.03
2022-10-18T11:52:49.043Z,2.70
2022-10-18T11:54:09.385Z,3.30
2022-10-18T11:55:33.042Z,3.17
2022-10-18T11:56:42.405Z,2.92
2022-10-18T11:57:50.064Z,2.90
2022-10-18T11:59:08.133Z,3.63
2022-10-18T12:00:21.347Z,3.95
2022-10-18T12:01:32.405Z,1.70
2022-10-18T12:02:55.554Z,2.15
2022-10-18T12:04:04.517Z,1.80
2022-10-18T12:05:24.528Z,1.63
2022-10-18T12:06:32.776Z,2.10
2022-10-18T12:07:40.678Z,1.55
2022-10-18T12:08:47.837Z,1.42
2022-10-18T12:09:52.348Z,1.80
2022-10-18T12:11:04.926Z,1.50
2022-10-18T12:12:12.214Z,1.50
2022-10-18T12:13:18.279Z,1.48
2022-10-18T12:14:25.343Z,1.70
2022-10-18T12:15:28.593Z,2.35
2022-10-18T12:16:50.517Z,1.95
2022-10-18T12:17:55.491Z,2.95
2022-10-18T12:18:59.960Z,2.40
2022-10-18T12:20:07.022Z,3.83
2022-10-18T12:21:10.943Z,2.17
2022-10-18T12:22:18.239Z,1.50
2022-10-18T12:23:25.915Z,1.73
2022-10-18T12:24:31.824Z,1.73
2022-10-18T12:25:38.280Z,1.60
2022-10-18T12:26:39.875Z,1.60
2022-10-18T12:27:46.185Z,2.00
2022-10-18T12:28:56.907Z,1.75
2022-10-18T12:30:03.571Z,1.85
2022-10-18T12:31:13.659Z,1.60
2022-10-18T12:32:19.139Z,1.80
2022-10-18T12:33:29.043Z,1.98
2022-10-18T12:34:36.307Z,1.85
2022-10-18T12:35:49.286Z,1.70
2022-10-18T12:37:08.274Z,1.75
2022-10-18T12:38:19.923Z,1.50
2022-10-18T12:39:33.427Z,1.95
2022-10-18T12:40:52.164Z,1.90
2022-10-18T12:41:54.943Z,1.67
2022-10-18T12:42:56.591Z,1.75
2022-10-18T12:44:02.625Z,1.08
2022-10-18T12:45:06.480Z,2.17
2022-10-18T12:46:13.245Z,1.52
2022-10-18T12:47:22.831Z,1.67
2022-10-18T12:48:43.124Z,1.77
2022-10-18T12:49:44.668Z,1.60
2022-10-18T12:50:58.028Z,1.60
2022-10-18T12:52:01.463Z,2.08
2022-10-18T12:53:18.740Z,2.85
2022-10-18T12:54:24.167Z,2.10
2022-10-18T12:55:35.139Z,1.92
2022-10-18T12:56:41.377Z,1.83
2022-10-18T12:58:04.334Z,1.80
2022-10-18T12:59:48.439Z,1.90
2022-10-18T13:01:06.797Z,1.80
2022-10-18T13:02:20.439Z,2.08
2022-10-18T13:03:37.909Z,1.85
2022-10-18T13:04:39.336Z,2.20
2022-10-18T13:05:57.552Z,1.85
2022-10-18T13:07:20.201Z,2.10
2022-10-18T13:08:38.607Z,1.90
2022-10-18T13:09:42.116Z,1.60
2022-10-18T13:10:44.437Z,1.90
2022-10-18T13:11:47.747Z,1.80
2022-10-18T13:12:59.583Z,2.03
2022-10-18T13:14:38.749Z,2.13
2022-10-18T13:15:53.684Z,2.10
2022-10-18T13:17:01.827Z,2.13
2022-10-18T13:18:10.638Z,1.92
2022-10-18T13:19:21.808Z,2.15
2022-10-18T13:20:29.522Z,2.10
2022-10-18T13:21:42.265Z,4.10
2022-10-18T13:23:00.319Z,2.30
2022-10-18T13:24:25.931Z,2.10
2022-10-18T13:25:32.436Z,2.00
2022-10-18T13:26:43.413Z,2.22
2022-10-18T13:27:52.218Z,1.52
2022-10-18T13:29:00.884Z,2.03
2022-10-18T13:30:18.748Z,1.88
2022-10-18T13:31:23.754Z,2.38
2022-10-18T13:32:32.389Z,2.15
2022-10-18T13:33:36.246Z,2.28
2022-10-18T13:34:37.717Z,2.40
2022-10-18T13:35:46.224Z,1.98
2022-10-18T13:36:56.737Z,2.15
2022-10-18T13:37:58.967Z,2.15
2022-10-18T13:39:04.075Z,2.10
2022-10-18T13:40:22.938Z,2.25
2022-10-18T13:41:28.239Z,2.03
2022-10-18T13:42:32.914Z,2.50
2022-10-18T13:43:57.798Z,2.28
2022-10-18T13:45:32.398Z,2.22
2022-10-18T13:47:19.447Z,2.42
2022-10-18T13:48:49.491Z,2.10
2022-10-18T13:50:17.841Z,1.90
2022-10-18T13:51:44.259Z,2.25
2022-10-18T13:53:11.598Z,2.70
2022-10-18T13:54:32.122Z,2.10
2022-10-18T13:55:55.899Z,2.92
2022-10-18T13:57:16.576Z,6.10
2022-10-18T13:58:27.640Z,2.40
2022-10-18T13:59:47.901Z,2.03
2022-10-18T14:01:02.669Z,2.22
2022-10-18T14:02:43.009Z,1.85
2022-10-18T14:04:11.500Z,2.13
2022-10-18T14:05:27.461Z,2.65
2022-10-18T14:06:35.261Z,2.28
2022-10-18T14:07:37.811Z,2.17
2022-10-18T14:08:45.096Z,2.30
2022-10-18T14:09:52.464Z,2.20
2022-10-18T14:11:03.533Z,2.65
2022-10-18T14:12:14.731Z,2.47
2022-10-18T14:13:20.209Z,2.78
2022-10-18T14:14:28.248Z,2.00
2022-10-18T14:15:35.345Z,2.42
2022-10-18T14:16:42.881Z,2.00
2022-10-18T14:17:47.589Z,2.25
2022-10-18T14:18:56.083Z,2.30
2022-10-18T14:20:02.778Z,2.30
2022-10-18T14:21:16.096Z,2.20
2022-10-18T14:22:24.767Z,2.17
2022-10-18T14:23:31.205Z,2.38
2022-10-18T14:24:33.115Z,2.40
2022-10-18T14:25:37.377Z,2.20
2022-10-18T14:27:41.197Z,2.00
2022-10-18T14:28:59.053Z,2.10
2022-10-18T14:30:10.456Z,2.00
2022-10-18T14:31:14.858Z,1.50
2022-10-18T14:32:25.599Z,1.80
2022-10-18T14:33:31.487Z,2.20
2022-10-18T14:34:34.035Z,2.40
2022-10-18T14:35:35.494Z,1.77
2022-10-18T14:36:41.008Z,2.30
2022-10-18T14:37:43.040Z,1.95
2022-10-18T14:38:48.384Z,1.90
2022-10-18T14:39:50.427Z,2.50
2022-10-18T14:41:04.945Z,1.80
2022-10-18T14:42:20.389Z,1.83
2022-10-18T14:43:21.799Z,2.05